Time;durP1;ratioP1;P1;durP2;ratioP2;P2;SDS_P1;SDS_P2;PMS_P1;PMS_P2;Temp;Humidity;BMP_temperature;BMP_pressure;BME280_temperature;BME280_humidity;BME280_pressure;Samples;Min_cycle;Max_cycle;Signal;HPM_P1;HPM_P2
2022/03/19 00:00:28;;;;;;;10.63;3.78;;;8.70;99.90;;;;;;4893144;29;20037;-92
2022/03/19 00:02:57;;;;;;;9.15;3.63;;;8.70;99.90;;;;;;4904111;29;20377;-91
2022/03/19 00:05:22;;;;;;;8.68;3.72;;;8.70;99.90;;;;;;4900480;29;20072;-92
2022/03/19 00:07:49;;;;;;;10.63;4.20;;;8.70;99.90;;;;;;4885220;29;20063;-94
2022/03/19 00:10:16;;;;;;;10.10;3.55;;;8.70;99.90;;;;;;4900894;29;20048;-93
2022/03/19 00:12:44;;;;;;;10.93;3.78;;;8.60;99.90;;;;;;4899770;29;20064;-93
2022/03/19 00:15:11;;;;;;;11.45;4.07;;;8.60;99.90;;;;;;4868499;29;20131;-92
2022/03/19 00:17:37;;;;;;;15.77;4.28;;;8.60;99.90;;;;;;4900381;29;20047;-91
2022/03/19 00:20:04;;;;;;;8.77;3.47;;;8.60;99.90;;;;;;4884987;29;20039;-93
2022/03/19 00:22:30;;;;;;;10.60;3.92;;;8.60;99.90;;;;;;4885294;29;20029;-92
2022/03/19 00:24:58;;;;;;;9.15;4.03;;;8.60;99.90;;;;;;4888485;29;20200;-92
2022/03/19 00:27:25;;;;;;;11.05;3.20;;;8.50;99.90;;;;;;4892081;29;20056;-90
2022/03/19 00:29:51;;;;;;;8.18;3.55;;;8.50;99.90;;;;;;4903082;29;20037;-93
2022/03/19 00:32:17;;;;;;;13.52;4.10;;;8.50;99.90;;;;;;4887580;29;20510;-91
2022/03/19 00:34:45;;;;;;;9.82;4.20;;;8.50;99.90;;;;;;4906636;29;20028;-91
2022/03/19 00:37:12;;;;;;;10.63;3.95;;;8.40;99.90;;;;;;4921039;23;20166;-89
2022/03/19 00:39:40;;;;;;;9.77;3.80;;;8.40;99.90;;;;;;4910720;29;20036;-91
2022/03/19 00:42:06;;;;;;;8.13;3.65;;;8.40;99.90;;;;;;4911806;29;20040;-91
2022/03/19 00:44:31;;;;;;;13.10;3.83;;;8.40;99.90;;;;;;4892637;29;20115;-93
2022/03/19 00:46:57;;;;;;;11.35;4.30;;;8.40;99.90;;;;;;4908491;29;20126;-90
2022/03/19 00:49:23;;;;;;;12.10;3.80;;;8.30;99.90;;;;;;4909028;29;20038;-91
2022/03/19 00:51:48;;;;;;;10.30;3.70;;;8.30;99.90;;;;;;4905213;29;20028;-92
2022/03/19 00:54:15;;;;;;;8.95;3.00;;;8.30;99.90;;;;;;4901899;29;20395;-91
2022/03/19 00:56:42;;;;;;;9.43;3.67;;;8.30;99.90;;;;;;4919265;29;20398;-92
2022/03/19 00:59:08;;;;;;;11.50;4.40;;;8.30;99.90;;;;;;4902222;29;20032;-92
2022/03/19 01:01:35;;;;;;;11.00;3.72;;;8.20;99.90;;;;;;4902276;29;20032;-92
2022/03/19 01:04:01;;;;;;;8.70;3.42;;;8.20;99.90;;;;;;4902019;29;20402;-91
2022/03/19 01:06:27;;;;;;;13.23;4.35;;;8.20;99.90;;;;;;4902211;29;20040;-92
2022/03/19 01:08:52;;;;;;;14.43;5.43;;;8.20;99.90;;;;;;4919454;29;20040;-92
2022/03/19 01:11:23;;;;;;;11.80;4.70;;;8.10;99.90;;;;;;4902160;29;20087;-92
2022/03/19 01:13:52;;;;;;;12.50;4.53;;;8.10;99.90;;;;;;4919338;29;20111;-92
2022/03/19 01:16:19;;;;;;;14.48;4.88;;;8.10;99.90;;;;;;4902217;29;20047;-91
2022/03/19 01:18:46;;;;;;;13.45;5.40;;;8.10;99.90;;;;;;4902079;29;20036;-92
2022/03/19 01:21:11;;;;;;;11.15;4.28;;;8.20;99.90;;;;;;4901992;29;20111;-92
2022/03/19 01:23:37;;;;;;;12.40;4.63;;;8.10;99.90;;;;;;4901554;29;20040;-91
2022/03/19 01:26:03;;;;;;;13.82;5.43;;;8.20;99.90;;;;;;4902500;29;20513;-91
2022/03/19 01:28:28;;;;;;;12.93;5.90;;;8.10;99.90;;;;;;4901648;29;20458;-90
2022/03/19 01:30:54;;;;;;;11.63;4.63;;;8.10;99.90;;;;;;4901766;29;20135;-90
2022/03/19 01:33:19;;;;;;;8.52;4.35;;;8.10;99.90;;;;;;4901800;29;20055;-92
2022/03/19 01:35:45;;;;;;;10.65;4.70;;;8.10;99.90;;;;;;4902305;29;20042;-92
2022/03/19 01:38:11;;;;;;;12.68;4.22;;;8.00;99.90;;;;;;4902137;29;20060;-93
2022/03/19 01:40:37;;;;;;;11.95;5.13;;;8.00;99.90;;;;;;4902557;29;20032;-93
2022/03/19 01:43:02;;;;;;;13.30;5.30;;;8.00;99.90;;;;;;4902231;29;20491;-94
2022/03/19 01:45:29;;;;;;;11.75;5.00;;;7.90;99.90;;;;;;4902405;29;20415;-92
2022/03/19 01:47:55;;;;;;;10.30;4.55;;;7.90;99.90;;;;;;4907036;29;20047;-91
2022/03/19 01:50:22;;;;;;;12.00;5.22;;;7.90;99.90;;;;;;4905195;29;20067;-92
2022/03/19 01:52:49;;;;;;;12.32;5.30;;;7.90;99.90;;;;;;4903864;29;20032;-92
2022/03/19 01:55:18;;;;;;;8.50;4.72;;;7.90;99.90;;;;;;4907700;29;20036;-91
2022/03/19 01:57:45;;;;;;;10.23;4.70;;;7.80;99.90;;;;;;4906425;29;20507;-91
2022/03/19 02:00:16;;;;;;;15.18;6.53;;;7.80;99.90;;;;;;4904311;29;20040;-91
2022/03/19 02:02:43;;;;;;;9.30;5.45;;;7.70;99.90;;;;;;4903368;29;20102;-91
2022/03/19 02:05:14;;;;;;;15.38;4.93;;;7.70;99.90;;;;;;4902377;29;20040;-92
2022/03/19 02:07:43;;;;;;;10.15;5.57;;;7.80;99.90;;;;;;4902585;29;20064;-93
2022/03/19 02:10:10;;;;;;;12.95;6.20;;;7.70;99.90;;;;;;4902432;29;20119;-92
2022/03/19 02:12:37;;;;;;;13.30;6.55;;;7.70;99.90;;;;;;4902427;29;20058;-92
2022/03/19 02:15:04;;;;;;;16.00;6.78;;;7.80;99.90;;;;;;4889809;29;20051;-92
2022/03/19 02:17:29;;;;;;;13.63;5.85;;;7.80;99.90;;;;;;4905921;29;20119;-92
2022/03/19 02:19:56;;;;;;;9.43;5.30;;;7.70;99.90;;;;;;4905374;29;20068;-92
2022/03/19 02:22:25;;;;;;;13.43;5.38;;;7.70;99.90;;;;;;4904932;29;20033;-92
2022/03/19 02:27:37;;;;;;;11.82;7.10;;;7.70;99.90;;;;;;4921770;29;20111;-90
2022/03/19 02:30:05;;;;;;;14.00;6.97;;;7.70;99.90;;;;;;4904368;29;20382;-92
2022/03/19 02:32:31;;;;;;;10.00;5.95;;;7.70;99.90;;;;;;4904231;29;20028;-92
2022/03/19 02:34:56;;;;;;;10.43;5.63;;;7.80;99.90;;;;;;4904928;29;20505;-91
2022/03/19 02:37:22;;;;;;;9.30;5.68;;;7.70;99.90;;;;;;4904554;29;20055;-92
2022/03/19 02:39:48;;;;;;;15.55;7.20;;;7.70;99.90;;;;;;4904474;29;20038;-91
2022/03/19 02:42:19;;;;;;;13.43;6.35;;;7.70;99.90;;;;;;4904532;29;20036;-92
2022/03/19 02:44:46;;;;;;;11.15;5.43;;;7.60;99.90;;;;;;4904580;29;20040;-91
2022/03/19 02:47:12;;;;;;;10.38;5.57;;;7.60;99.90;;;;;;4905123;29;20071;-91
2022/03/19 02:49:38;;;;;;;15.40;7.18;;;7.70;99.90;;;;;;4904528;29;20032;-92
2022/03/19 02:52:04;;;;;;;12.80;6.05;;;7.60;99.90;;;;;;4905476;29;20032;-92
2022/03/19 02:54:31;;;;;;;13.52;6.38;;;7.60;99.90;;;;;;4904178;29;20040;-91
2022/03/19 02:56:58;;;;;;;14.82;6.57;;;7.60;99.90;;;;;;4904556;29;20043;-92
2022/03/19 02:59:25;;;;;;;11.48;6.10;;;7.50;99.90;;;;;;4904775;29;20147;-91
2022/03/19 03:01:56;;;;;;;11.10;6.13;;;7.50;99.90;;;;;;4904538;29;20402;-93
2022/03/19 03:04:23;;;;;;;12.52;5.85;;;7.50;99.90;;;;;;4904512;29;20032;-91
2022/03/19 03:06:51;;;;;;;14.82;6.28;;;7.50;99.90;;;;;;4904616;29;20032;-92
2022/03/19 03:09:22;;;;;;;11.60;6.22;;;7.50;99.90;;;;;;4904958;29;20028;-93
2022/03/19 03:11:48;;;;;;;11.48;5.38;;;7.50;99.90;;;;;;4905182;29;20075;-92
2022/03/19 03:14:13;;;;;;;12.30;6.00;;;7.40;99.90;;;;;;4904972;29;20055;-93
2022/03/19 03:16:40;;;;;;;10.95;5.55;;;7.40;99.90;;;;;;4904901;29;20054;-93
2022/03/19 03:19:07;;;;;;;14.35;5.80;;;7.40;99.90;;;;;;4905575;29;20056;-91
2022/03/19 03:21:35;;;;;;;9.65;5.43;;;7.30;99.90;;;;;;4906270;29;20112;-93
2022/03/19 03:24:01;;;;;;;12.13;5.65;;;7.30;99.90;;;;;;4905422;29;20043;-91
2022/03/19 03:26:28;;;;;;;11.05;5.30;;;7.30;99.90;;;;;;4905099;29;20047;-93
2022/03/19 03:28:54;;;;;;;13.75;5.78;;;7.20;99.90;;;;;;4907731;29;20036;-94
2022/03/19 03:31:20;;;;;;;13.13;5.30;;;7.20;99.90;;;;;;4915815;29;20047;-92
2022/03/19 03:33:46;;;;;;;14.38;5.60;;;7.20;99.90;;;;;;4909332;29;20060;-93
2022/03/19 03:36:12;;;;;;;10.00;5.13;;;7.10;99.90;;;;;;4926174;29;20087;-92
2022/03/19 03:38:38;;;;;;;11.63;4.90;;;7.20;99.90;;;;;;4926942;29;20031;-91
2022/03/19 03:41:04;;;;;;;11.02;4.88;;;7.10;99.90;;;;;;4927214;29;20048;-90
2022/03/19 03:43:30;;;;;;;9.65;4.30;;;7.10;99.90;;;;;;4926425;29;20020;-92
2022/03/19 03:45:56;;;;;;;14.55;5.72;;;7.10;99.90;;;;;;4943087;29;20063;-92
2022/03/19 03:48:22;;;;;;;11.15;6.10;;;7.10;99.90;;;;;;4926465;29;20054;-95
2022/03/19 03:50:51;;;;;;;11.73;6.00;;;7.00;99.90;;;;;;4926370;29;20040;-92
2022/03/19 03:53:17;;;;;;;12.75;5.53;;;7.00;99.90;;;;;;4923799;29;20024;-90
2022/03/19 03:55:44;;;;;;;12.57;5.50;;;7.00;99.90;;;;;;4911290;29;20032;-92
2022/03/19 03:58:11;;;;;;;12.55;5.50;;;7.00;99.90;;;;;;4910186;29;20039;-89
2022/03/19 04:00:37;;;;;;;12.52;6.75;;;7.00;99.90;;;;;;4912692;29;20104;-90
2022/03/19 04:03:04;;;;;;;16.83;7.13;;;7.00;99.90;;;;;;4934627;29;20020;-90
2022/03/19 04:05:30;;;;;;;13.25;6.28;;;7.00;99.90;;;;;;4917848;29;20067;-91
2022/03/19 04:07:56;;;;;;;14.45;6.63;;;7.00;99.90;;;;;;4916792;29;20095;-91
2022/03/19 04:10:22;;;;;;;13.75;6.40;;;6.90;99.90;;;;;;4915854;29;20465;-90
2022/03/19 04:12:48;;;;;;;11.15;6.10;;;6.90;99.90;;;;;;4927358;29;20043;-93
2022/03/19 04:15:14;;;;;;;13.13;5.93;;;6.90;99.90;;;;;;4926041;29;20040;-90
2022/03/19 04:17:43;;;;;;;12.82;6.05;;;6.80;99.90;;;;;;4926756;29;20039;-91
2022/03/19 04:20:09;;;;;;;12.65;6.45;;;6.80;99.90;;;;;;4908226;29;20040;-92
2022/03/19 04:22:40;;;;;;;13.23;6.20;;;6.80;99.90;;;;;;4908006;29;20028;-91
2022/03/19 04:25:11;;;;;;;14.35;6.75;;;6.80;99.90;;;;;;4907715;29;20040;-92
2022/03/19 04:27:38;;;;;;;15.43;6.70;;;6.80;99.90;;;;;;4905314;29;20160;-93
2022/03/19 04:30:05;;;;;;;12.43;6.43;;;6.80;99.90;;;;;;4905530;29;20073;-92
2022/03/19 04:32:38;;;;;;;8.98;5.63;;;6.80;99.90;;;;;;4905305;29;20028;-94
2022/03/19 04:36:29;;;;;;;11.35;5.60;;;6.70;99.90;;;;;;4905792;29;20060;-93
2022/03/19 04:37:50;;;;;;;11.60;5.78;;;6.70;99.90;;;;;;4922746;29;20146;-92
2022/03/19 04:40:16;;;;;;;15.00;7.47;;;6.60;99.90;;;;;;4906943;29;20042;-92
2022/03/19 04:42:41;;;;;;;8.40;5.53;;;6.60;99.90;;;;;;4908619;29;20478;-92
2022/03/19 04:45:07;;;;;;;13.82;7.35;;;6.60;99.90;;;;;;4907205;29;20044;-92
2022/03/19 04:47:33;;;;;;;12.27;6.05;;;6.60;99.90;;;;;;4903765;29;20059;-91
2022/03/19 04:50:00;;;;;;;13.05;7.47;;;6.60;99.90;;;;;;4903560;29;20099;-92
2022/03/19 04:52:27;;;;;;;13.13;6.13;;;6.60;99.90;;;;;;4905112;29;20590;-93
2022/03/19 04:54:57;;;;;;;10.38;5.72;;;6.60;99.90;;;;;;4906120;29;20164;-91
2022/03/19 04:57:23;;;;;;;14.50;7.10;;;6.60;99.90;;;;;;4913642;29;20032;-90
2022/03/19 04:59:48;;;;;;;14.05;7.15;;;6.60;99.90;;;;;;4905932;29;20032;-93
2022/03/19 05:02:14;;;;;;;13.32;6.38;;;6.50;99.90;;;;;;4903826;29;20082;-91
2022/03/19 05:04:40;;;;;;;11.90;6.40;;;6.50;99.90;;;;;;4905112;29;20103;-91
2022/03/19 05:07:05;;;;;;;15.00;7.45;;;6.50;99.90;;;;;;4903621;29;20108;-91
2022/03/19 05:12:43;;;;;;;16.50;7.45;;;6.40;99.90;;;;;;4922421;29;20047;-92
2022/03/19 05:15:14;;;;;;;10.52;6.60;;;6.40;99.90;;;;;;4905694;29;20028;-92
2022/03/19 05:17:40;;;;;;;14.18;6.43;;;6.40;99.90;;;;;;4902986;29;20123;-92
2022/03/19 05:20:06;;;;;;;11.18;6.88;;;6.40;99.90;;;;;;4902728;29;20054;-92
2022/03/19 05:22:32;;;;;;;15.60;7.10;;;6.40;99.90;;;;;;4902376;29;20080;-92
2022/03/19 05:24:58;;;;;;;13.38;6.15;;;6.40;99.90;;;;;;4902794;29;20048;-92
2022/03/19 05:27:24;;;;;;;12.95;6.45;;;6.40;99.90;;;;;;4902808;29;20036;-92
2022/03/19 05:29:50;;;;;;;14.48;6.82;;;6.40;99.90;;;;;;4902526;29;20090;-93
2022/03/19 05:32:16;;;;;;;14.63;6.90;;;6.40;99.90;;;;;;4903592;29;20483;-93
2022/03/19 05:34:42;;;;;;;14.05;7.07;;;6.40;99.90;;;;;;4903198;29;20111;-91
2022/03/19 05:37:09;;;;;;;15.52;7.40;;;6.30;99.90;;;;;;4902811;29;20483;-93
2022/03/19 05:39:36;;;;;;;12.45;6.60;;;6.30;99.90;;;;;;4903442;29;20123;-92
2022/03/19 05:42:03;;;;;;;13.27;6.43;;;6.30;99.90;;;;;;4903527;29;20554;-93
2022/03/19 05:44:28;;;;;;;10.23;6.32;;;6.30;99.90;;;;;;4902784;29;20042;-92
2022/03/19 05:46:54;;;;;;;13.50;6.05;;;6.30;99.90;;;;;;4903333;29;20044;-93
2022/03/19 05:49:20;;;;;;;15.07;7.05;;;6.30;99.90;;;;;;4906140;29;20103;-92
2022/03/19 05:51:46;;;;;;;13.68;6.60;;;6.30;99.90;;;;;;4906499;29;20051;-93
2022/03/19 05:54:11;;;;;;;10.23;6.00;;;6.30;99.90;;;;;;4906530;29;20095;-91
2022/03/19 05:56:37;;;;;;;11.02;6.18;;;6.20;99.90;;;;;;4906604;29;20071;-93
2022/03/19 05:59:04;;;;;;;13.88;7.28;;;6.30;99.90;;;;;;4906969;29;20044;-93
2022/03/19 06:01:30;;;;;;;11.90;6.72;;;6.20;99.90;;;;;;4906453;29;20035;-93
2022/03/19 06:03:57;;;;;;;13.85;5.78;;;6.20;99.90;;;;;;4908596;29;20032;-93
2022/03/19 06:06:27;;;;;;;14.25;6.32;;;6.30;99.90;;;;;;4909247;29;20044;-91
2022/03/19 06:08:53;;;;;;;11.55;6.00;;;6.20;99.90;;;;;;4908270;29;20064;-93
2022/03/19 06:11:19;;;;;;;13.38;6.07;;;6.30;99.90;;;;;;4907782;29;20560;-93
2022/03/19 06:13:44;;;;;;;9.75;5.20;;;6.30;99.90;;;;;;4912824;29;20075;-93
2022/03/19 06:16:11;;;;;;;11.30;6.22;;;6.30;99.90;;;;;;4911925;29;20444;-94
2022/03/19 06:18:36;;;;;;;8.52;4.75;;;6.30;99.90;;;;;;4908927;29;20115;-90
2022/03/19 06:21:03;;;;;;;13.18;5.85;;;6.20;99.90;;;;;;4908277;29;20123;-91
2022/03/19 06:23:28;;;;;;;11.32;5.50;;;6.30;99.90;;;;;;4915693;29;20119;-90
2022/03/19 06:25:55;;;;;;;11.60;5.63;;;6.30;99.90;;;;;;4909959;29;20526;-91
2022/03/19 06:28:23;;;;;;;9.63;4.90;;;6.20;99.90;;;;;;4914026;29;20032;-93
2022/03/19 06:30:49;;;;;;;15.93;6.00;;;6.20;99.90;;;;;;4911066;29;20130;-92
2022/03/19 06:33:15;;;;;;;14.82;5.28;;;6.30;99.90;;;;;;4910296;29;20067;-92
2022/03/19 06:38:28;;;;;;;15.52;6.38;;;6.30;99.90;;;;;;4933339;29;20096;-93
2022/03/19 06:40:54;;;;;;;14.00;5.97;;;6.30;99.90;;;;;;4916549;29;20048;-92
2022/03/19 06:43:20;;;;;;;13.95;5.10;;;6.30;99.90;;;;;;4919010;29;20044;-92
2022/03/19 06:45:46;;;;;;;7.80;4.28;;;6.40;99.90;;;;;;4915406;29;20051;-92
2022/03/19 06:48:12;;;;;;;11.40;5.00;;;6.40;99.90;;;;;;4914544;29;20084;-91
2022/03/19 06:50:38;;;;;;;11.50;5.20;;;6.40;99.90;;;;;;4911600;29;20145;-90
2022/03/19 06:53:04;;;;;;;12.63;5.55;;;6.50;99.90;;;;;;4911387;29;20032;-92
2022/03/19 06:55:32;;;;;;;13.57;5.68;;;6.50;99.90;;;;;;4912125;29;20056;-91
2022/03/19 06:57:58;;;;;;;10.32;5.30;;;6.50;99.90;;;;;;4913736;29;20500;-91
2022/03/19 07:00:25;;;;;;;13.75;5.18;;;6.60;99.90;;;;;;4913022;29;20067;-92
2022/03/19 07:02:53;;;;;;;13.68;4.65;;;6.60;99.90;;;;;;4912421;29;20035;-92
2022/03/19 07:05:27;;;;;;;12.38;4.88;;;6.70;99.90;;;;;;4914405;29;20044;-88
2022/03/19 07:07:54;;;;;;;10.15;4.38;;;6.60;99.90;;;;;;4914060;29;20036;-89
2022/03/19 07:10:20;;;;;;;12.55;4.90;;;6.70;99.90;;;;;;4915332;29;20040;-90
2022/03/19 07:12:50;;;;;;;12.55;4.75;;;6.70;99.90;;;;;;4931513;29;20047;-90
2022/03/19 07:15:27;;;;;;;8.02;4.25;;;6.80;99.90;;;;;;4933741;29;20035;-91
2022/03/19 07:18:05;;;;;;;12.25;4.57;;;6.90;99.90;;;;;;4933428;29;20036;-89
2022/03/19 07:20:31;;;;;;;9.45;4.68;;;6.90;99.90;;;;;;4976456;23;20052;-90
2022/03/19 07:23:05;;;;;;;13.15;4.57;;;7.00;99.90;;;;;;4932876;29;20038;-93
2022/03/19 07:25:36;;;;;;;10.45;4.38;;;7.00;99.90;;;;;;4927709;29;20044;-91
2022/03/19 07:28:12;;;;;;;9.57;4.43;;;7.10;99.90;;;;;;4926314;29;20092;-91
2022/03/19 07:30:56;;;;;;;15.13;4.53;;;7.10;99.90;;;;;;5044063;23;20080;-93
2022/03/19 07:33:23;;;;;;;11.60;4.40;;;7.20;99.90;;;;;;4914300;29;20032;-91
2022/03/19 07:36:25;;;;;;;12.25;4.70;;;7.20;99.90;;;;;;4929647;23;20060;-91
2022/03/19 07:38:52;;;;;;;9.40;4.68;;;7.30;99.90;;;;;;4930311;29;20039;-90
2022/03/19 07:44:04;;;;;;;11.80;4.50;;;7.40;99.90;;;;;;4922474;29;20047;-93
2022/03/19 07:46:30;;;;;;;12.13;4.90;;;7.40;99.90;;;;;;5007185;23;20052;-94
2022/03/19 07:48:56;;;;;;;11.00;4.72;;;7.50;99.90;;;;;;4924415;29;20028;-92
2022/03/19 07:51:22;;;;;;;12.00;4.68;;;7.50;99.90;;;;;;4907082;29;20509;-92
2022/03/19 07:53:49;;;;;;;15.02;5.28;;;7.50;99.90;;;;;;4904521;29;20032;-91
2022/03/19 07:56:15;;;;;;;9.80;4.97;;;7.50;99.90;;;;;;4904195;29;20036;-91
2022/03/19 07:58:45;;;;;;;8.20;4.40;;;7.50;99.90;;;;;;4911679;29;20072;-88
2022/03/19 08:01:11;;;;;;;7.07;4.07;;;7.50;99.90;;;;;;4891032;29;20097;-92
2022/03/19 08:03:36;;;;;;;9.73;4.38;;;7.50;99.90;;;;;;4899796;29;20479;-92
2022/03/19 08:06:03;;;;;;;11.20;4.18;;;7.60;99.90;;;;;;4902412;29;20040;-93
2022/03/19 08:08:30;;;;;;;13.05;4.68;;;7.60;99.90;;;;;;4904362;29;20487;-91
2022/03/19 08:11:00;;;;;;;11.20;4.72;;;7.70;99.90;;;;;;4925525;29;20036;-91
2022/03/19 08:13:30;;;;;;;10.50;4.18;;;7.70;99.90;;;;;;5139935;23;20062;-88
2022/03/19 08:15:56;;;;;;;13.90;5.95;;;7.80;99.90;;;;;;4907210;29;20038;-93
2022/03/19 08:18:23;;;;;;;9.27;4.57;;;7.90;99.90;;;;;;4908225;29;20092;-93
2022/03/19 08:20:49;;;;;;;11.48;4.93;;;7.90;99.90;;;;;;4905110;29;20046;-92
2022/03/19 08:23:15;;;;;;;10.93;5.07;;;8.00;99.90;;;;;;4923507;29;20032;-90
2022/03/19 08:25:42;;;;;;;10.27;4.53;;;8.10;99.90;;;;;;4902462;29;20149;-91
2022/03/19 08:28:08;;;;;;;12.85;5.32;;;8.20;99.90;;;;;;4901974;29;20040;-91
2022/03/19 08:30:36;;;;;;;14.32;5.38;;;8.30;99.90;;;;;;4902191;29;20450;-91
2022/03/19 08:33:02;;;;;;;12.45;5.15;;;8.30;99.90;;;;;;4886899;29;20055;-92
2022/03/19 08:35:28;;;;;;;11.80;5.15;;;8.40;99.90;;;;;;4901719;29;20044;-91
2022/03/19 08:40:15;;;;;;;15.88;5.10;;;8.50;99.90;;;;;;4901641;29;20032;-92
2022/03/19 08:40:39;;;;;;;13.65;4.53;;;8.50;99.90;;;;;;4920310;29;20044;-90
2022/03/19 08:43:05;;;;;;;14.18;5.05;;;8.60;99.90;;;;;;4902698;29;20044;-91
2022/03/19 08:45:30;;;;;;;8.98;4.25;;;8.70;99.90;;;;;;4901441;29;20040;-90
2022/03/19 08:47:56;;;;;;;13.02;5.20;;;8.70;99.90;;;;;;4902381;29;20024;-89
2022/03/19 08:50:24;;;;;;;9.93;4.15;;;8.80;99.90;;;;;;4901971;29;20099;-90
2022/03/19 08:52:49;;;;;;;9.73;4.43;;;8.90;99.90;;;;;;4901314;29;20056;-90
2022/03/19 08:55:15;;;;;;;12.73;4.35;;;8.90;99.90;;;;;;4900697;29;20040;-92
2022/03/19 08:57:42;;;;;;;14.85;5.03;;;9.00;99.90;;;;;;4901355;29;20368;-91
2022/03/19 09:00:08;;;;;;;9.45;4.40;;;9.10;99.90;;;;;;4954321;23;20143;-93
2022/03/19 09:02:42;;;;;;;10.98;4.47;;;9.10;99.90;;;;;;4935602;23;20060;-90
2022/03/19 09:05:08;;;;;;;10.25;4.25;;;9.20;99.90;;;;;;4906930;29;20050;-91
2022/03/19 09:07:34;;;;;;;8.45;4.35;;;9.30;99.90;;;;;;4903846;29;20024;-91
2022/03/19 09:10:00;;;;;;;7.43;3.22;;;9.40;99.90;;;;;;4905187;29;20039;-93
2022/03/19 09:12:26;;;;;;;9.45;3.80;;;9.50;99.90;;;;;;4903457;29;20104;-92
2022/03/19 09:15:04;;;;;;;13.65;4.00;;;9.60;99.90;;;;;;4902040;29;20028;-94
2022/03/19 09:17:30;;;;;;;10.35;3.60;;;9.70;99.90;;;;;;4901260;29;20040;-96
2022/03/19 09:20:06;;;;;;;10.50;3.40;;;9.70;99.90;;;;;;4906416;29;20159;-92
2022/03/19 09:22:32;;;;;;;9.15;3.35;;;9.80;99.90;;;;;;4907424;29;20400;-93
2022/03/19 09:24:58;;;;;;;7.70;3.38;;;9.90;99.90;;;;;;4907792;29;20475;-91
2022/03/19 09:27:24;;;;;;;6.95;3.35;;;10.00;99.90;;;;;;4909000;29;20107;-87
2022/03/19 09:29:49;;;;;;;9.15;3.40;;;10.10;99.90;;;;;;4925673;29;20032;-89
2022/03/19 09:32:19;;;;;;;8.75;2.97;;;10.10;99.90;;;;;;4925864;29;20391;-89
2022/03/19 09:34:52;;;;;;;10.30;3.38;;;10.20;99.90;;;;;;4910132;29;20036;-88
2022/03/19 09:37:18;;;;;;;7.38;3.00;;;10.30;99.90;;;;;;4910657;29;20029;-92
2022/03/19 09:39:44;;;;;;;13.10;3.17;;;10.40;99.90;;;;;;4913119;29;20546;-89
2022/03/19 09:42:12;;;;;;;7.78;3.38;;;10.50;99.90;;;;;;4915027;29;20058;-93
2022/03/19 09:44:39;;;;;;;8.20;2.95;;;10.60;99.90;;;;;;4914792;29;20055;-88
2022/03/19 09:47:05;;;;;;;8.43;3.03;;;10.70;99.90;;;;;;4918705;29;20028;-89
2022/03/19 09:49:33;;;;;;;9.57;2.85;;;10.90;99.90;;;;;;4919166;29;20036;-89
2022/03/19 09:52:03;;;;;;;9.50;2.78;;;11.50;99.90;;;;;;4904337;29;20048;-90
2022/03/19 09:54:33;;;;;;;9.75;2.47;;;12.80;99.90;;;;;;4919620;29;20040;-88
2022/03/19 09:57:26;;;;;;;8.57;2.00;;;14.40;99.90;;;;;;4937403;29;20055;-91
2022/03/19 09:59:51;;;;;;;5.32;1.85;;;15.90;99.90;;;;;;4930733;29;20040;-92
2022/03/19 10:02:18;;;;;;;6.63;2.03;;;17.10;99.40;;;;;;4907281;29;20119;-93
2022/03/19 10:04:45;;;;;;;9.55;2.25;;;17.90;97.30;;;;;;4912013;29;20036;-89
2022/03/19 10:10:11;;;;;;;6.05;2.30;;;19.20;93.70;;;;;;4922077;29;20043;-92
2022/03/19 10:12:39;;;;;;;7.45;2.45;;;19.60;92.00;;;;;;4906550;29;20043;-94
2022/03/19 10:15:09;;;;;;;5.35;1.70;;;19.60;89.20;;;;;;4908119;29;20040;-94
2022/03/19 10:17:39;;;;;;;6.15;2.45;;;19.90;90.10;;;;;;4902424;29;20452;-95
2022/03/19 10:20:12;;;;;;;8.27;2.50;;;20.30;87.40;;;;;;4904371;29;20052;-93
2022/03/19 10:22:44;;;;;;;7.93;2.53;;;20.50;85.70;;;;;;4906055;29;20552;-95
2022/03/19 10:25:17;;;;;;;6.63;2.13;;;20.60;83.30;;;;;;4909833;29;20037;-90
2022/03/19 10:27:44;;;;;;;6.75;2.42;;;20.70;80.00;;;;;;4907562;29;20136;-93
2022/03/19 10:30:16;;;;;;;5.10;1.92;;;20.50;77.80;;;;;;4904038;29;20639;-92
2022/03/19 10:32:46;;;;;;;6.97;2.40;;;20.80;77.00;;;;;;4903202;29;20041;-90
2022/03/19 10:35:28;;;;;;;6.40;1.70;;;20.90;74.90;;;;;;4899794;29;20131;-92
2022/03/19 10:37:55;;;;;;;8.23;2.25;;;21.10;73.20;;;;;;4887723;29;20199;-90
2022/03/19 10:40:21;;;;;;;3.97;1.30;;;20.90;70.00;;;;;;4900069;29;20119;-90
2022/03/19 10:42:50;;;;;;;5.88;1.45;;;20.80;69.10;;;;;;4899578;29;20415;-91
2022/03/19 10:45:21;;;;;;;6.50;1.77;;;21.00;68.60;;;;;;4899406;29;20033;-91
2022/03/19 10:47:48;;;;;;;13.38;2.80;;;21.30;66.40;;;;;;4903017;29;20084;-91
2022/03/19 10:50:22;;;;;;;9.10;2.35;;;21.30;66.30;;;;;;4883454;29;20145;-91
2022/03/19 10:52:49;;;;;;;11.55;2.38;;;21.70;66.30;;;;;;4882965;29;20765;-91
2022/03/19 10:55:16;;;;;;;4.80;1.33;;;22.10;65.80;;;;;;4882764;29;20029;-91
2022/03/19 10:57:44;;;;;;;6.57;1.65;;;22.20;64.80;;;;;;4885935;29;20039;-92
2022/03/19 11:00:11;;;;;;;4.05;1.30;;;22.30;64.50;;;;;;4870686;29;20399;-92
2022/03/19 11:02:48;;;;;;;5.38;2.05;;;22.60;64.60;;;;;;4883866;29;20135;-91
2022/03/19 11:05:18;;;;;;;4.00;1.77;;;22.40;62.50;;;;;;4884973;29;20135;-90
2022/03/19 11:07:45;;;;;;;5.43;1.60;;;22.40;63.10;;;;;;4902435;29;20065;-87
2022/03/19 11:10:12;;;;;;;3.60;1.55;;;22.60;63.20;;;;;;4886104;29;20041;-90
2022/03/19 11:12:42;;;;;;;3.72;1.60;;;22.80;63.40;;;;;;4886825;29;20029;-89
2022/03/19 11:15:13;;;;;;;4.88;1.90;;;23.20;62.60;;;;;;4904387;29;20503;-88
2022/03/19 11:17:45;;;;;;;4.43;1.50;;;23.50;60.80;;;;;;4886828;29;20046;-90
2022/03/19 11:20:12;;;;;;;4.72;1.80;;;23.40;61.90;;;;;;4901028;29;20029;-89
2022/03/19 11:22:52;;;;;;;6.35;2.05;;;23.20;59.40;;;;;;4883850;29;20037;-92
2022/03/19 11:25:27;;;;;;;4.18;1.60;;;23.20;59.20;;;;;;4884812;29;20088;-89
2022/03/19 11:28:10;;;;;;;6.63;1.70;;;23.30;59.90;;;;;;4901863;29;20055;-88
2022/03/19 11:30:59;;;;;;;4.55;1.63;;;23.30;58.30;;;;;;4883986;29;20037;-91
2022/03/19 11:33:30;;;;;;;3.17;1.55;;;23.30;57.10;;;;;;4884502;29;20674;-90
2022/03/19 11:36:12;;;;;;;5.90;1.42;;;23.20;56.70;;;;;;4901777;29;20036;-93
2022/03/19 11:38:49;;;;;;;3.25;1.10;;;23.00;55.20;;;;;;4889252;29;20047;-89
2022/03/19 11:41:22;;;;;;;3.38;1.30;;;22.90;55.70;;;;;;4888948;29;20039;-91
2022/03/19 11:43:50;;;;;;;4.05;1.10;;;23.00;55.50;;;;;;4891917;29;20044;-91
2022/03/19 11:46:16;;;;;;;3.20;1.20;;;23.00;55.20;;;;;;4894851;29;20044;-89
2022/03/19 11:48:50;;;;;;;4.03;1.33;;;22.90;54.50;;;;;;4898694;29;20032;-92
2022/03/19 11:51:25;;;;;;;6.03;1.50;;;22.80;54.80;;;;;;4921274;29;20059;-90
2022/03/19 11:54:12;;;;;;;5.38;1.40;;;22.80;53.30;;;;;;4921390;29;20033;-91
2022/03/19 11:56:41;;;;;;;2.80;1.10;;;22.90;53.20;;;;;;4904027;29;20035;-90
2022/03/19 11:59:15;;;;;;;3.25;1.38;;;23.00;53.00;;;;;;4920501;29;20051;-91
2022/03/19 12:02:05;;;;;;;5.30;1.75;;;23.00;53.10;;;;;;4904151;29;20084;-92
2022/03/19 12:04:48;;;;;;;5.15;1.42;;;23.30;51.80;;;;;;4904687;29;20043;-89
2022/03/19 12:07:38;;;;;;;3.50;1.30;;;23.50;53.30;;;;;;4911372;29;20044;-88
2022/03/19 12:10:15;;;;;;;4.13;1.40;;;23.50;52.50;;;;;;4895018;29;20037;-90
2022/03/19 12:12:42;;;;;;;3.75;1.50;;;23.50;53.40;;;;;;4904323;29;20047;-88
2022/03/19 12:15:45;;;;;;;3.17;1.15;;;23.60;53.20;;;;;;4910272;29;20025;-92
2022/03/19 12:18:41;;;;;;;3.47;0.90;;;23.80;52.50;;;;;;4940025;29;20498;-91
2022/03/19 12:21:10;;;;;;;7.82;1.40;;;24.00;52.60;;;;;;4939340;29;20040;-93
2022/03/19 12:24:16;;;;;;;4.72;1.02;;;24.10;51.50;;;;;;4942289;28;20028;-92
2022/03/19 12:26:49;;;;;;;3.58;0.95;;;24.30;49.80;;;;;;4934187;29;20055;-91
2022/03/19 12:29:17;;;;;;;2.95;0.75;;;24.10;50.90;;;;;;4921399;29;20046;-92
2022/03/19 12:31:45;;;;;;;4.57;1.20;;;23.90;50.90;;;;;;4921599;29;20060;-93
2022/03/19 12:34:19;;;;;;;3.15;0.90;;;23.90;50.60;;;;;;4906890;29;20054;-91
2022/03/19 12:36:46;;;;;;;4.55;1.35;;;24.10;51.40;;;;;;4921839;29;20069;-93
2022/03/19 12:39:13;;;;;;;3.47;1.13;;;24.40;52.10;;;;;;4922320;29;20033;-93
2022/03/19 12:41:40;;;;;;;3.50;1.30;;;24.40;51.20;;;;;;4921621;29;20045;-92
2022/03/19 12:44:10;;;;;;;4.50;1.23;;;24.40;51.10;;;;;;4922087;29;20039;-90
2022/03/19 12:46:37;;;;;;;3.92;1.08;;;24.40;51.40;;;;;;4921965;29;20044;-93
2022/03/19 12:49:07;;;;;;;3.47;1.10;;;24.60;51.20;;;;;;4928756;29;20021;-89
2022/03/19 12:51:35;;;;;;;3.47;1.00;;;24.90;51.50;;;;;;4934260;29;20027;-91
2022/03/19 12:54:01;;;;;;;3.92;1.20;;;25.20;51.30;;;;;;4916719;29;20025;-92
2022/03/19 12:56:28;;;;;;;3.17;1.08;;;25.40;50.80;;;;;;4901480;29;20059;-92
2022/03/19 12:58:56;;;;;;;4.43;1.33;;;25.50;50.20;;;;;;4901631;29;20092;-91
2022/03/19 13:01:24;;;;;;;3.72;1.08;;;25.40;49.20;;;;;;4909709;29;20061;-91
2022/03/19 13:03:56;;;;;;;3.92;1.10;;;25.20;49.10;;;;;;4887573;29;20045;-90
2022/03/19 13:06:30;;;;;;;4.20;1.08;;;25.30;49.00;;;;;;4884673;29;20130;-90
2022/03/19 13:08:56;;;;;;;4.97;1.33;;;25.00;48.50;;;;;;4867341;29;20036;-92